sensor_id;sensor_type;location;lat;lon;timestamp;P1;durP1;ratioP1;P2;durP2;ratioP2
27696;SDS011;15105;56.514;21.002;2022-08-19T00:28:36;16.58;;;7.90;;
27696;SDS011;15105;56.514;21.002;2022-08-19T00:50:12;18.10;;;7.35;;
27696;SDS011;15105;56.514;21.002;2022-08-19T00:52:44;19.98;;;7.78;;
27696;SDS011;15105;56.514;21.002;2022-08-19T00:55:24;20.33;;;8.85;;
27696;SDS011;15105;56.514;21.002;2022-08-19T00:57:56;18.65;;;7.93;;
27696;SDS011;15105;56.514;21.002;2022-08-19T01:03:21;18.23;;;8.50;;
27696;SDS011;15105;56.514;21.002;2022-08-19T01:05:49;18.13;;;7.53;;
27696;SDS011;15105;56.514;21.002;2022-08-19T01:08:29;15.38;;;7.65;;
27696;SDS011;15105;56.514;21.002;2022-08-19T02:03:09;17.05;;;7.82;;
27696;SDS011;15105;56.514;21.002;2022-08-19T02:11:43;20.52;;;8.90;;
27696;SDS011;15105;56.514;21.002;2022-08-19T02:14:10;18.77;;;8.15;;
27696;SDS011;15105;56.514;21.002;2022-08-19T02:16:37;21.02;;;7.60;;
27696;SDS011;15105;56.514;21.002;2022-08-19T02:19:06;20.88;;;8.13;;
27696;SDS011;15105;56.514;21.002;2022-08-19T02:21:54;14.35;;;7.30;;
27696;SDS011;15105;56.514;21.002;2022-08-19T05:08:37;22.42;;;8.55;;
27696;SDS011;15105;56.514;21.002;2022-08-19T05:24:41;18.77;;;7.57;;
27696;SDS011;15105;56.514;21.002;2022-08-19T05:27:29;22.95;;;8.38;;
27696;SDS011;15105;56.514;21.002;2022-08-19T05:43:35;17.60;;;7.78;;
27696;SDS011;15105;56.514;21.002;2022-08-19T05:46:08;25.48;;;7.72;;
27696;SDS011;15105;56.514;21.002;2022-08-19T05:51:52;36.25;;;8.20;;
27696;SDS011;15105;56.514;21.002;2022-08-19T05:54:22;17.30;;;7.53;;
27696;SDS011;15105;56.514;21.002;2022-08-19T06:05:08;20.17;;;7.80;;
27696;SDS011;15105;56.514;21.002;2022-08-19T06:10:19;20.85;;;7.60;;
27696;SDS011;15105;56.514;21.002;2022-08-19T06:12:48;24.48;;;7.93;;
27696;SDS011;15105;56.514;21.002;2022-08-19T06:15:15;19.85;;;8.35;;
27696;SDS011;15105;56.514;21.002;2022-08-19T06:17:43;12.75;;;6.85;;
27696;SDS011;15105;56.514;21.002;2022-08-19T06:20:14;15.30;;;6.93;;
27696;SDS011;15105;56.514;21.002;2022-08-19T06:22:47;20.73;;;7.07;;
27696;SDS011;15105;56.514;21.002;2022-08-19T06:37:02;21.75;;;8.10;;
27696;SDS011;15105;56.514;21.002;2022-08-19T06:42:11;21.05;;;8.10;;
27696;SDS011;15105;56.514;21.002;2022-08-19T06:44:40;20.80;;;7.05;;
27696;SDS011;15105;56.514;21.002;2022-08-19T06:47:17;17.05;;;7.43;;
27696;SDS011;15105;56.514;21.002;2022-08-19T06:49:57;19.13;;;7.35;;
27696;SDS011;15105;56.514;21.002;2022-08-19T06:52:31;16.88;;;7.32;;
27696;SDS011;15105;56.514;21.002;2022-08-19T06:55:03;15.05;;;6.85;;
27696;SDS011;15105;56.514;21.002;2022-08-19T06:57:32;12.82;;;6.35;;
27696;SDS011;15105;56.514;21.002;2022-08-19T07:00:00;18.33;;;6.80;;
27696;SDS011;15105;56.514;21.002;2022-08-19T07:02:27;15.32;;;6.82;;
27696;SDS011;15105;56.514;21.002;2022-08-19T07:04:54;12.98;;;7.22;;
27696;SDS011;15105;56.514;21.002;2022-08-19T07:07:24;20.80;;;7.25;;
27696;SDS011;15105;56.514;21.002;2022-08-19T07:09:51;11.05;;;6.85;;
27696;SDS011;15105;56.514;21.002;2022-08-19T07:12:28;21.90;;;6.95;;
27696;SDS011;15105;56.514;21.002;2022-08-19T07:14:57;18.48;;;6.90;;
27696;SDS011;15105;56.514;21.002;2022-08-19T07:17:26;18.15;;;6.70;;
27696;SDS011;15105;56.514;21.002;2022-08-19T07:19:53;14.05;;;6.82;;
27696;SDS011;15105;56.514;21.002;2022-08-19T07:22:21;15.40;;;6.60;;
27696;SDS011;15105;56.514;21.002;2022-08-19T07:24:51;11.90;;;6.30;;
27696;SDS011;15105;56.514;21.002;2022-08-19T07:27:19;18.95;;;7.10;;
27696;SDS011;15105;56.514;21.002;2022-08-19T07:29:50;16.50;;;6.57;;
27696;SDS011;15105;56.514;21.002;2022-08-19T07:32:22;15.10;;;7.22;;
27696;SDS011;15105;56.514;21.002;2022-08-19T07:34:53;17.33;;;6.75;;
27696;SDS011;15105;56.514;21.002;2022-08-19T07:37:23;19.92;;;8.02;;
27696;SDS011;15105;56.514;21.002;2022-08-19T07:39:58;19.13;;;6.85;;
27696;SDS011;15105;56.514;21.002;2022-08-19T07:42:26;19.65;;;7.35;;
27696;SDS011;15105;56.514;21.002;2022-08-19T07:44:56;14.70;;;7.30;;
27696;SDS011;15105;56.514;21.002;2022-08-19T07:47:24;11.98;;;6.53;;
27696;SDS011;15105;56.514;21.002;2022-08-19T07:50:14;22.98;;;6.82;;
27696;SDS011;15105;56.514;21.002;2022-08-19T07:52:43;20.60;;;6.68;;
27696;SDS011;15105;56.514;21.002;2022-08-19T07:55:14;17.52;;;6.38;;
27696;SDS011;15105;56.514;21.002;2022-08-19T07:58:03;21.00;;;7.15;;
27696;SDS011;15105;56.514;21.002;2022-08-19T08:00:31;18.52;;;6.22;;
27696;SDS011;15105;56.514;21.002;2022-08-19T08:02:58;18.25;;;6.97;;
27696;SDS011;15105;56.514;21.002;2022-08-19T08:05:25;18.40;;;7.10;;
27696;SDS011;15105;56.514;21.002;2022-08-19T08:08:15;16.88;;;6.80;;
27696;SDS011;15105;56.514;21.002;2022-08-19T08:11:01;14.98;;;6.47;;
27696;SDS011;15105;56.514;21.002;2022-08-19T08:13:32;17.05;;;6.72;;
27696;SDS011;15105;56.514;21.002;2022-08-19T08:16:04;16.50;;;6.47;;
27696;SDS011;15105;56.514;21.002;2022-08-19T08:18:39;22.23;;;6.85;;
27696;SDS011;15105;56.514;21.002;2022-08-19T08:21:15;17.02;;;6.70;;
27696;SDS011;15105;56.514;21.002;2022-08-19T08:23:43;24.55;;;6.63;;
27696;SDS011;15105;56.514;21.002;2022-08-19T08:26:10;15.95;;;6.40;;
27696;SDS011;15105;56.514;21.002;2022-08-19T08:28:42;12.32;;;6.20;;
27696;SDS011;15105;56.514;21.002;2022-08-19T08:31:14;16.77;;;6.65;;
27696;SDS011;15105;56.514;21.002;2022-08-19T08:33:41;18.40;;;6.90;;
27696;SDS011;15105;56.514;21.002;2022-08-19T08:36:13;16.65;;;6.55;;
27696;SDS011;15105;56.514;21.002;2022-08-19T08:38:42;20.60;;;7.40;;
27696;SDS011;15105;56.514;21.002;2022-08-19T08:43:52;18.63;;;6.50;;
27696;SDS011;15105;56.514;21.002;2022-08-19T08:52:18;21.05;;;6.55;;
27696;SDS011;15105;56.514;21.002;2022-08-19T08:54:59;12.38;;;5.70;;
27696;SDS011;15105;56.514;21.002;2022-08-19T09:00:23;18.60;;;6.05;;
27696;SDS011;15105;56.514;21.002;2022-08-19T09:02:53;19.30;;;6.00;;
27696;SDS011;15105;56.514;21.002;2022-08-19T09:05:26;17.15;;;6.50;;
27696;SDS011;15105;56.514;21.002;2022-08-19T09:10:59;18.73;;;6.60;;
27696;SDS011;15105;56.514;21.002;2022-08-19T09:13:42;20.23;;;5.82;;
27696;SDS011;15105;56.514;21.002;2022-08-19T09:16:21;12.52;;;5.63;;
27696;SDS011;15105;56.514;21.002;2022-08-19T09:19:03;13.52;;;5.90;;
27696;SDS011;15105;56.514;21.002;2022-08-19T09:21:31;10.40;;;5.75;;
27696;SDS011;15105;56.514;21.002;2022-08-19T09:24:00;14.50;;;5.53;;
27696;SDS011;15105;56.514;21.002;2022-08-19T09:26:29;14.82;;;5.88;;
27696;SDS011;15105;56.514;21.002;2022-08-19T09:29:17;10.60;;;5.55;;
27696;SDS011;15105;56.514;21.002;2022-08-19T09:31:47;17.70;;;5.53;;
27696;SDS011;15105;56.514;21.002;2022-08-19T09:34:15;8.00;;;4.93;;
27696;SDS011;15105;56.514;21.002;2022-08-19T09:36:47;11.27;;;5.20;;
27696;SDS011;15105;56.514;21.002;2022-08-19T09:39:20;11.98;;;4.50;;
27696;SDS011;15105;56.514;21.002;2022-08-19T09:41:48;16.23;;;4.95;;
27696;SDS011;15105;56.514;21.002;2022-08-19T09:44:16;14.82;;;5.18;;
27696;SDS011;15105;56.514;21.002;2022-08-19T09:46:44;13.60;;;4.95;;
27696;SDS011;15105;56.514;21.002;2022-08-19T09:49:14;17.83;;;4.93;;
27696;SDS011;15105;56.514;21.002;2022-08-19T10:36:08;14.07;;;4.40;;
27696;SDS011;15105;56.514;21.002;2022-08-19T10:39:02;14.82;;;4.82;;
27696;SDS011;15105;56.514;21.002;2022-08-19T10:41:33;12.05;;;3.90;;
27696;SDS011;15105;56.514;21.002;2022-08-19T10:44:12;16.98;;;4.28;;
27696;SDS011;15105;56.514;21.002;2022-08-19T10:46:41;17.95;;;5.40;;
27696;SDS011;15105;56.514;21.002;2022-08-19T10:49:14;11.52;;;4.13;;
27696;SDS011;15105;56.514;21.002;2022-08-19T10:51:43;13.13;;;4.50;;
27696;SDS011;15105;56.514;21.002;2022-08-19T10:54:35;16.45;;;4.43;;
27696;SDS011;15105;56.514;21.002;2022-08-19T10:57:21;13.32;;;4.53;;
27696;SDS011;15105;56.514;21.002;2022-08-19T11:00:02;16.00;;;4.45;;
27696;SDS011;15105;56.514;21.002;2022-08-19T11:02:30;10.55;;;4.22;;
27696;SDS011;15105;56.514;21.002;2022-08-19T11:04:59;13.43;;;3.85;;
27696;SDS011;15105;56.514;21.002;2022-08-19T11:07:38;12.73;;;5.45;;
27696;SDS011;15105;56.514;21.002;2022-08-19T11:10:07;10.13;;;5.38;;
27696;SDS011;15105;56.514;21.002;2022-08-19T11:12:38;13.57;;;5.95;;
27696;SDS011;15105;56.514;21.002;2022-08-19T11:15:07;16.20;;;5.93;;
27696;SDS011;15105;56.514;21.002;2022-08-19T11:17:40;13.07;;;6.05;;
27696;SDS011;15105;56.514;21.002;2022-08-19T11:20:07;13.32;;;5.57;;
27696;SDS011;15105;56.514;21.002;2022-08-19T11:22:36;14.48;;;6.10;;
27696;SDS011;15105;56.514;21.002;2022-08-19T11:25:08;13.05;;;6.05;;
27696;SDS011;15105;56.514;21.002;2022-08-19T11:27:40;13.27;;;5.68;;
27696;SDS011;15105;56.514;21.002;2022-08-19T11:30:09;17.52;;;6.07;;
27696;SDS011;15105;56.514;21.002;2022-08-19T11:32:38;13.52;;;5.88;;
27696;SDS011;15105;56.514;21.002;2022-08-19T11:35:13;15.50;;;6.78;;
27696;SDS011;15105;56.514;21.002;2022-08-19T11:37:41;17.00;;;6.40;;
27696;SDS011;15105;56.514;21.002;2022-08-19T11:40:08;15.25;;;6.22;;
27696;SDS011;15105;56.514;21.002;2022-08-19T11:42:36;16.42;;;6.65;;
27696;SDS011;15105;56.514;21.002;2022-08-19T11:45:22;14.38;;;6.32;;
27696;SDS011;15105;56.514;21.002;2022-08-19T11:47:53;14.77;;;6.50;;
27696;SDS011;15105;56.514;21.002;2022-08-19T11:50:21;21.77;;;6.53;;
27696;SDS011;15105;56.514;21.002;2022-08-19T11:52:49;15.75;;;6.68;;
27696;SDS011;15105;56.514;21.002;2022-08-19T11:55:20;12.88;;;6.47;;
27696;SDS011;15105;56.514;21.002;2022-08-19T11:57:48;18.40;;;6.43;;
27696;SDS011;15105;56.514;21.002;2022-08-19T12:00:17;15.20;;;7.07;;
27696;SDS011;15105;56.514;21.002;2022-08-19T12:02:44;14.70;;;6.90;;
27696;SDS011;15105;56.514;21.002;2022-08-19T12:05:11;14.68;;;6.50;;
27696;SDS011;15105;56.514;21.002;2022-08-19T12:07:39;9.68;;;6.28;;
27696;SDS011;15105;56.514;21.002;2022-08-19T12:10:10;19.00;;;7.32;;
27696;SDS011;15105;56.514;21.002;2022-08-19T12:12:37;12.70;;;6.63;;
27696;SDS011;15105;56.514;21.002;2022-08-19T12:15:10;18.08;;;7.72;;
27696;SDS011;15105;56.514;21.002;2022-08-19T12:17:38;14.10;;;6.88;;
27696;SDS011;15105;56.514;21.002;2022-08-19T12:20:06;13.43;;;6.38;;
27696;SDS011;15105;56.514;21.002;2022-08-19T12:22:35;20.33;;;6.47;;
27696;SDS011;15105;56.514;21.002;2022-08-19T12:25:04;15.23;;;7.22;;
27696;SDS011;15105;56.514;21.002;2022-08-19T12:27:32;20.77;;;6.90;;
27696;SDS011;15105;56.514;21.002;2022-08-19T12:30:07;15.25;;;7.30;;
27696;SDS011;15105;56.514;21.002;2022-08-19T12:32:37;12.45;;;6.45;;
27696;SDS011;15105;56.514;21.002;2022-08-19T12:35:05;12.35;;;6.78;;
27696;SDS011;15105;56.514;21.002;2022-08-19T12:37:35;13.65;;;7.13;;
27696;SDS011;15105;56.514;21.002;2022-08-19T12:40:02;18.25;;;6.97;;
27696;SDS011;15105;56.514;21.002;2022-08-19T12:42:30;17.45;;;6.85;;
27696;SDS011;15105;56.514;21.002;2022-08-19T12:44:57;14.77;;;7.10;;
27696;SDS011;15105;56.514;21.002;2022-08-19T12:47:24;17.58;;;7.75;;
27696;SDS011;15105;56.514;21.002;2022-08-19T12:49:52;17.67;;;6.88;;
27696;SDS011;15105;56.514;21.002;2022-08-19T12:52:25;17.88;;;7.18;;
27696;SDS011;15105;56.514;21.002;2022-08-19T12:54:54;10.98;;;7.18;;
27696;SDS011;15105;56.514;21.002;2022-08-19T12:57:23;23.83;;;7.00;;
27696;SDS011;15105;56.514;21.002;2022-08-19T13:00:12;15.60;;;7.05;;
27696;SDS011;15105;56.514;21.002;2022-08-19T13:02:45;16.23;;;7.32;;
27696;SDS011;15105;56.514;21.002;2022-08-19T13:05:17;19.50;;;7.82;;
27696;SDS011;15105;56.514;21.002;2022-08-19T13:07:49;18.65;;;7.68;;
27696;SDS011;15105;56.514;21.002;2022-08-19T13:10:19;20.35;;;8.30;;
27696;SDS011;15105;56.514;21.002;2022-08-19T13:12:48;15.00;;;7.25;;
27696;SDS011;15105;56.514;21.002;2022-08-19T13:15:16;13.95;;;7.65;;
27696;SDS011;15105;56.514;21.002;2022-08-19T13:17:50;13.25;;;7.22;;
27696;SDS011;15105;56.514;21.002;2022-08-19T13:20:19;17.17;;;6.97;;
27696;SDS011;15105;56.514;21.002;2022-08-19T13:22:47;11.90;;;7.28;;
27696;SDS011;15105;56.514;21.002;2022-08-19T13:25:15;15.45;;;7.70;;
27696;SDS011;15105;56.514;21.002;2022-08-19T13:27:43;13.63;;;7.53;;
27696;SDS011;15105;56.514;21.002;2022-08-19T13:30:11;18.30;;;7.25;;
27696;SDS011;15105;56.514;21.002;2022-08-19T13:32:59;12.60;;;7.00;;
27696;SDS011;15105;56.514;21.002;2022-08-19T13:35:48;14.93;;;7.00;;
27696;SDS011;15105;56.514;21.002;2022-08-19T13:38:23;17.65;;;6.80;;
27696;SDS011;15105;56.514;21.002;2022-08-19T13:40:51;12.90;;;6.78;;
27696;SDS011;15105;56.514;21.002;2022-08-19T13:43:20;15.20;;;6.95;;
27696;SDS011;15105;56.514;21.002;2022-08-19T13:45:53;16.40;;;7.15;;
27696;SDS011;15105;56.514;21.002;2022-08-19T13:48:23;18.73;;;6.70;;
27696;SDS011;15105;56.514;21.002;2022-08-19T13:50:52;17.52;;;6.90;;
27696;SDS011;15105;56.514;21.002;2022-08-19T13:53:20;18.38;;;7.20;;
27696;SDS011;15105;56.514;21.002;2022-08-19T13:55:47;17.90;;;7.05;;
27696;SDS011;15105;56.514;21.002;2022-08-19T13:58:16;23.00;;;7.88;;
27696;SDS011;15105;56.514;21.002;2022-08-19T14:00:44;19.17;;;7.15;;
27696;SDS011;15105;56.514;21.002;2022-08-19T14:03:12;13.10;;;6.45;;
27696;SDS011;15105;56.514;21.002;2022-08-19T14:05:39;22.88;;;7.10;;
27696;SDS011;15105;56.514;21.002;2022-08-19T14:08:06;16.23;;;6.57;;
27696;SDS011;15105;56.514;21.002;2022-08-19T14:10:33;14.05;;;6.70;;
27696;SDS011;15105;56.514;21.002;2022-08-19T14:13:02;13.75;;;6.10;;
27696;SDS011;15105;56.514;21.002;2022-08-19T14:15:30;18.48;;;7.03;;
27696;SDS011;15105;56.514;21.002;2022-08-19T14:17:58;15.90;;;6.70;;
27696;SDS011;15105;56.514;21.002;2022-08-19T14:20:25;10.93;;;6.25;;
27696;SDS011;15105;56.514;21.002;2022-08-19T14:22:53;14.38;;;6.38;;
27696;SDS011;15105;56.514;21.002;2022-08-19T14:25:23;20.45;;;6.70;;
27696;SDS011;15105;56.514;21.002;2022-08-19T14:27:52;12.35;;;6.30;;
27696;SDS011;15105;56.514;21.002;2022-08-19T14:30:22;11.05;;;6.07;;
27696;SDS011;15105;56.514;21.002;2022-08-19T14:33:00;14.60;;;6.22;;
27696;SDS011;15105;56.514;21.002;2022-08-19T14:35:28;13.02;;;6.45;;
27696;SDS011;15105;56.514;21.002;2022-08-19T14:37:56;17.38;;;6.53;;
27696;SDS011;15105;56.514;21.002;2022-08-19T14:40:25;20.05;;;7.15;;
27696;SDS011;15105;56.514;21.002;2022-08-19T14:42:55;14.45;;;5.25;;
27696;SDS011;15105;56.514;21.002;2022-08-19T14:45:26;10.70;;;4.35;;
27696;SDS011;15105;56.514;21.002;2022-08-19T14:47:54;14.90;;;4.40;;
27696;SDS011;15105;56.514;21.002;2022-08-19T14:50:21;11.45;;;3.83;;
27696;SDS011;15105;56.514;21.002;2022-08-19T14:52:49;15.85;;;4.22;;
27696;SDS011;15105;56.514;21.002;2022-08-19T14:55:16;8.98;;;3.90;;
27696;SDS011;15105;56.514;21.002;2022-08-19T14:57:44;12.15;;;3.80;;
27696;SDS011;15105;56.514;21.002;2022-08-19T15:00:14;10.63;;;4.13;;
27696;SDS011;15105;56.514;21.002;2022-08-19T15:02:42;14.10;;;3.50;;
27696;SDS011;15105;56.514;21.002;2022-08-19T15:05:10;14.95;;;3.65;;
27696;SDS011;15105;56.514;21.002;2022-08-19T15:07:39;17.35;;;4.15;;
27696;SDS011;15105;56.514;21.002;2022-08-19T15:10:07;9.23;;;3.47;;
27696;SDS011;15105;56.514;21.002;2022-08-19T15:12:38;15.73;;;3.92;;
27696;SDS011;15105;56.514;21.002;2022-08-19T15:15:09;9.43;;;3.55;;
27696;SDS011;15105;56.514;21.002;2022-08-19T15:17:46;19.10;;;4.00;;
27696;SDS011;15105;56.514;21.002;2022-08-19T15:20:14;15.40;;;4.47;;
27696;SDS011;15105;56.514;21.002;2022-08-19T15:22:43;11.10;;;4.68;;
27696;SDS011;15105;56.514;21.002;2022-08-19T15:25:15;17.90;;;4.10;;
27696;SDS011;15105;56.514;21.002;2022-08-19T15:27:44;11.88;;;4.70;;
27696;SDS011;15105;56.514;21.002;2022-08-19T15:30:12;12.80;;;3.80;;
27696;SDS011;15105;56.514;21.002;2022-08-19T15:32:46;13.27;;;4.13;;
27696;SDS011;15105;56.514;21.002;2022-08-19T15:35:14;13.23;;;4.20;;
27696;SDS011;15105;56.514;21.002;2022-08-19T15:37:41;11.75;;;4.57;;
27696;SDS011;15105;56.514;21.002;2022-08-19T15:40:10;15.05;;;4.30;;
27696;SDS011;15105;56.514;21.002;2022-08-19T15:42:37;16.67;;;4.20;;
27696;SDS011;15105;56.514;21.002;2022-08-19T15:45:08;14.13;;;4.03;;
27696;SDS011;15105;56.514;21.002;2022-08-19T15:47:37;16.13;;;4.88;;
27696;SDS011;15105;56.514;21.002;2022-08-19T15:50:09;11.20;;;4.20;;
27696;SDS011;15105;56.514;21.002;2022-08-19T15:52:45;7.60;;;4.43;;
27696;SDS011;15105;56.514;21.002;2022-08-19T15:55:16;9.20;;;3.78;;
27696;SDS011;15105;56.514;21.002;2022-08-19T15:58:00;9.70;;;3.63;;
27696;SDS011;15105;56.514;21.002;2022-08-19T16:01:02;11.87;;;3.80;;
27696;SDS011;15105;56.514;21.002;2022-08-19T16:03:53;9.48;;;3.83;;
27696;SDS011;15105;56.514;21.002;2022-08-19T16:06:49;12.93;;;3.92;;
27696;SDS011;15105;56.514;21.002;2022-08-19T16:09:22;13.18;;;4.35;;
27696;SDS011;15105;56.514;21.002;2022-08-19T16:11:57;10.15;;;3.95;;
27696;SDS011;15105;56.514;21.002;2022-08-19T16:14:28;10.32;;;3.95;;
27696;SDS011;15105;56.514;21.002;2022-08-19T16:16:57;9.10;;;3.83;;
27696;SDS011;15105;56.514;21.002;2022-08-19T16:19:24;12.23;;;3.88;;
27696;SDS011;15105;56.514;21.002;2022-08-19T16:21:52;9.35;;;3.80;;
27696;SDS011;15105;56.514;21.002;2022-08-19T16:24:22;8.55;;;3.58;;
27696;SDS011;15105;56.514;21.002;2022-08-19T16:26:52;11.40;;;4.32;;
27696;SDS011;15105;56.514;21.002;2022-08-19T16:29:21;19.77;;;3.88;;
27696;SDS011;15105;56.514;21.002;2022-08-19T16:31:59;13.90;;;4.03;;
27696;SDS011;15105;56.514;21.002;2022-08-19T16:34:38;15.98;;;3.85;;
27696;SDS011;15105;56.514;21.002;2022-08-19T16:37:06;12.30;;;3.55;;
27696;SDS011;15105;56.514;21.002;2022-08-19T16:39:53;13.82;;;4.95;;
27696;SDS011;15105;56.514;21.002;2022-08-19T16:42:20;14.98;;;5.38;;
27696;SDS011;15105;56.514;21.002;2022-08-19T16:44:47;19.50;;;5.28;;
27696;SDS011;15105;56.514;21.002;2022-08-19T16:47:15;17.25;;;6.07;;
27696;SDS011;15105;56.514;21.002;2022-08-19T16:49:43;8.77;;;4.00;;
27696;SDS011;15105;56.514;21.002;2022-08-19T16:52:20;23.77;;;11.50;;
27696;SDS011;15105;56.514;21.002;2022-08-19T16:54:53;20.73;;;10.07;;
27696;SDS011;15105;56.514;21.002;2022-08-19T16:57:20;8.48;;;3.75;;
27696;SDS011;15105;56.514;21.002;2022-08-19T16:59:49;7.78;;;3.75;;
27696;SDS011;15105;56.514;21.002;2022-08-19T17:02:19;8.45;;;3.67;;
27696;SDS011;15105;56.514;21.002;2022-08-19T17:04:48;10.57;;;3.58;;
27696;SDS011;15105;56.514;21.002;2022-08-19T17:07:24;11.68;;;4.22;;
27696;SDS011;15105;56.514;21.002;2022-08-19T17:09:53;10.77;;;3.42;;
27696;SDS011;15105;56.514;21.002;2022-08-19T17:12:20;13.45;;;4.03;;
27696;SDS011;15105;56.514;21.002;2022-08-19T17:14:57;11.90;;;4.13;;
27696;SDS011;15105;56.514;21.002;2022-08-19T17:17:28;15.23;;;3.80;;
27696;SDS011;15105;56.514;21.002;2022-08-19T17:19:59;10.68;;;4.30;;
27696;SDS011;15105;56.514;21.002;2022-08-19T17:22:30;14.70;;;4.53;;
27696;SDS011;15105;56.514;21.002;2022-08-19T17:24:57;17.17;;;4.10;;
27696;SDS011;15105;56.514;21.002;2022-08-19T17:27:25;9.93;;;3.65;;
27696;SDS011;15105;56.514;21.002;2022-08-19T17:29:57;15.40;;;3.83;;
27696;SDS011;15105;56.514;21.002;2022-08-19T17:32:25;14.88;;;4.13;;
27696;SDS011;15105;56.514;21.002;2022-08-19T17:34:52;19.63;;;4.35;;
27696;SDS011;15105;56.514;21.002;2022-08-19T17:37:20;15.27;;;3.88;;
27696;SDS011;15105;56.514;21.002;2022-08-19T17:39:47;16.48;;;4.20;;
27696;SDS011;15105;56.514;21.002;2022-08-19T17:42:14;12.50;;;3.85;;
27696;SDS011;15105;56.514;21.002;2022-08-19T17:44:41;12.98;;;3.60;;
27696;SDS011;15105;56.514;21.002;2022-08-19T17:47:16;10.30;;;3.70;;
27696;SDS011;15105;56.514;21.002;2022-08-19T17:49:44;9.40;;;3.38;;
27696;SDS011;15105;56.514;21.002;2022-08-19T17:52:12;11.77;;;4.05;;
27696;SDS011;15105;56.514;21.002;2022-08-19T17:54:39;13.55;;;3.80;;
27696;SDS011;15105;56.514;21.002;2022-08-19T17:57:06;14.00;;;4.10;;
27696;SDS011;15105;56.514;21.002;2022-08-19T17:59:33;5.78;;;4.03;;
27696;SDS011;15105;56.514;21.002;2022-08-19T18:02:03;14.50;;;5.20;;
27696;SDS011;15105;56.514;21.002;2022-08-19T18:04:31;10.60;;;4.20;;
27696;SDS011;15105;56.514;21.002;2022-08-19T18:06:58;16.13;;;4.30;;
27696;SDS011;15105;56.514;21.002;2022-08-19T18:09:32;11.68;;;3.97;;
27696;SDS011;15105;56.514;21.002;2022-08-19T18:12:09;11.82;;;4.57;;
27696;SDS011;15105;56.514;21.002;2022-08-19T18:14:56;11.77;;;4.30;;
27696;SDS011;15105;56.514;21.002;2022-08-19T18:17:23;11.43;;;4.22;;
27696;SDS011;15105;56.514;21.002;2022-08-19T18:19:51;10.25;;;4.32;;
27696;SDS011;15105;56.514;21.002;2022-08-19T18:24:51;17.92;;;4.47;;
27696;SDS011;15105;56.514;21.002;2022-08-19T18:27:18;8.77;;;4.00;;
27696;SDS011;15105;56.514;21.002;2022-08-19T18:29:46;24.13;;;4.22;;
27696;SDS011;15105;56.514;21.002;2022-08-19T18:32:15;10.43;;;3.83;;
27696;SDS011;15105;56.514;21.002;2022-08-19T18:34:49;11.13;;;4.07;;
27696;SDS011;15105;56.514;21.002;2022-08-19T18:37:16;17.27;;;4.03;;
27696;SDS011;15105;56.514;21.002;2022-08-19T18:39:43;8.00;;;3.92;;
27696;SDS011;15105;56.514;21.002;2022-08-19T18:42:29;15.52;;;4.30;;
27696;SDS011;15105;56.514;21.002;2022-08-19T18:45:14;16.83;;;4.32;;
27696;SDS011;15105;56.514;21.002;2022-08-19T18:48:00;16.75;;;4.55;;
27696;SDS011;15105;56.514;21.002;2022-08-19T18:50:53;16.20;;;4.18;;
27696;SDS011;15105;56.514;21.002;2022-08-19T18:53:21;15.30;;;4.50;;
27696;SDS011;15105;56.514;21.002;2022-08-19T18:55:48;14.52;;;4.43;;
27696;SDS011;15105;56.514;21.002;2022-08-19T18:58:28;14.90;;;4.55;;
27696;SDS011;15105;56.514;21.002;2022-08-19T19:01:00;12.77;;;4.20;;
27696;SDS011;15105;56.514;21.002;2022-08-19T19:09:34;11.90;;;3.85;;
27696;SDS011;15105;56.514;21.002;2022-08-19T19:12:03;12.50;;;4.30;;
27696;SDS011;15105;56.514;21.002;2022-08-19T19:14:53;22.88;;;5.20;;
27696;SDS011;15105;56.514;21.002;2022-08-19T19:17:20;15.82;;;4.50;;
27696;SDS011;15105;56.514;21.002;2022-08-19T19:19:52;10.23;;;4.00;;
27696;SDS011;15105;56.514;21.002;2022-08-19T19:22:20;11.85;;;4.65;;
27696;SDS011;15105;56.514;21.002;2022-08-19T19:24:49;15.07;;;4.32;;
27696;SDS011;15105;56.514;21.002;2022-08-19T19:27:17;14.27;;;4.60;;
27696;SDS011;15105;56.514;21.002;2022-08-19T19:29:46;20.00;;;4.43;;
27696;SDS011;15105;56.514;21.002;2022-08-19T19:32:20;13.25;;;4.85;;
27696;SDS011;15105;56.514;21.002;2022-08-19T19:34:49;21.13;;;5.07;;
27696;SDS011;15105;56.514;21.002;2022-08-19T19:37:17;23.77;;;4.45;;
27696;SDS011;15105;56.514;21.002;2022-08-19T19:39:45;16.85;;;4.85;;
27696;SDS011;15105;56.514;21.002;2022-08-19T19:42:17;21.02;;;4.40;;
27696;SDS011;15105;56.514;21.002;2022-08-19T19:44:50;15.43;;;5.13;;
27696;SDS011;15105;56.514;21.002;2022-08-19T19:47:22;10.82;;;4.07;;
27696;SDS011;15105;56.514;21.002;2022-08-19T19:49:49;22.30;;;4.45;;
27696;SDS011;15105;56.514;21.002;2022-08-19T19:52:38;16.15;;;4.38;;
27696;SDS011;15105;56.514;21.002;2022-08-19T19:55:06;14.32;;;4.63;;
27696;SDS011;15105;56.514;21.002;2022-08-19T19:57:35;17.30;;;4.65;;
27696;SDS011;15105;56.514;21.002;2022-08-19T20:00:05;25.33;;;5.30;;
27696;SDS011;15105;56.514;21.002;2022-08-19T20:02:34;12.65;;;4.72;;
27696;SDS011;15105;56.514;21.002;2022-08-19T20:05:01;18.02;;;5.03;;
27696;SDS011;15105;56.514;21.002;2022-08-19T20:07:28;11.82;;;5.05;;
27696;SDS011;15105;56.514;21.002;2022-08-19T20:10:16;17.02;;;4.95;;
27696;SDS011;15105;56.514;21.002;2022-08-19T20:12:43;17.40;;;4.85;;
27696;SDS011;15105;56.514;21.002;2022-08-19T20:15:10;18.92;;;5.57;;
27696;SDS011;15105;56.514;21.002;2022-08-19T20:17:37;15.85;;;5.00;;
27696;SDS011;15105;56.514;21.002;2022-08-19T20:20:11;19.83;;;5.32;;
27696;SDS011;15105;56.514;21.002;2022-08-19T20:22:40;19.08;;;5.07;;
27696;SDS011;15105;56.514;21.002;2022-08-19T20:25:13;20.10;;;5.38;;
27696;SDS011;15105;56.514;21.002;2022-08-19T20:27:41;16.40;;;5.20;;
27696;SDS011;15105;56.514;21.002;2022-08-19T20:30:10;15.93;;;5.10;;
27696;SDS011;15105;56.514;21.002;2022-08-19T20:32:45;19.70;;;5.22;;
27696;SDS011;15105;56.514;21.002;2022-08-19T20:35:13;21.65;;;5.40;;
27696;SDS011;15105;56.514;21.002;2022-08-19T20:37:42;18.17;;;5.75;;
27696;SDS011;15105;56.514;21.002;2022-08-19T20:40:09;14.63;;;5.18;;
27696;SDS011;15105;56.514;21.002;2022-08-19T20:42:46;18.10;;;5.45;;
27696;SDS011;15105;56.514;21.002;2022-08-19T20:45:16;15.10;;;5.32;;
27696;SDS011;15105;56.514;21.002;2022-08-19T20:47:59;25.00;;;5.47;;
27696;SDS011;15105;56.514;21.002;2022-08-19T20:50:29;19.50;;;5.18;;
27696;SDS011;15105;56.514;21.002;2022-08-19T20:53:03;17.92;;;5.22;;
27696;SDS011;15105;56.514;21.002;2022-08-19T20:55:35;19.33;;;5.43;;
27696;SDS011;15105;56.514;21.002;2022-08-19T20:58:02;17.42;;;5.22;;
27696;SDS011;15105;56.514;21.002;2022-08-19T21:03:47;14.43;;;4.65;;
27696;SDS011;15105;56.514;21.002;2022-08-19T21:06:14;14.15;;;5.07;;
27696;SDS011;15105;56.514;21.002;2022-08-19T21:08:41;13.85;;;5.07;;
27696;SDS011;15105;56.514;21.002;2022-08-19T21:11:08;20.77;;;5.35;;
27696;SDS011;15105;56.514;21.002;2022-08-19T21:13:36;15.10;;;5.32;;
27696;SDS011;15105;56.514;21.002;2022-08-19T21:16:03;19.95;;;5.30;;
27696;SDS011;15105;56.514;21.002;2022-08-19T21:18:34;27.70;;;6.05;;
27696;SDS011;15105;56.514;21.002;2022-08-19T21:21:02;19.67;;;5.38;;
27696;SDS011;15105;56.514;21.002;2022-08-19T21:23:30;13.10;;;5.32;;
27696;SDS011;15105;56.514;21.002;2022-08-19T21:25:58;16.70;;;4.57;;